sensor_id;sensor_type;location;lat;lon;timestamp;P1;durP1;ratioP1;P2;durP2;ratioP2
77220;SDS011;66217;50.004;8.266;2023-08-20T00:01:31;9.10;;;5.30;;
77220;SDS011;66217;50.004;8.266;2023-08-20T00:03:56;7.45;;;5.05;;
77220;SDS011;66217;50.004;8.266;2023-08-20T00:06:22;7.38;;;5.20;;
77220;SDS011;66217;50.004;8.266;2023-08-20T00:08:49;9.82;;;4.95;;
77220;SDS011;66217;50.004;8.266;2023-08-20T00:11:17;9.98;;;5.80;;
77220;SDS011;66217;50.004;8.266;2023-08-20T00:13:42;14.23;;;6.40;;
77220;SDS011;66217;50.004;8.266;2023-08-20T00:16:08;12.02;;;5.95;;
77220;SDS011;66217;50.004;8.266;2023-08-20T00:18:34;12.15;;;5.88;;
77220;SDS011;66217;50.004;8.266;2023-08-20T00:21:00;12.68;;;6.10;;
77220;SDS011;66217;50.004;8.266;2023-08-20T00:23:26;10.27;;;5.95;;
77220;SDS011;66217;50.004;8.266;2023-08-20T00:25:51;8.50;;;5.35;;
77220;SDS011;66217;50.004;8.266;2023-08-20T00:28:18;9.63;;;5.40;;
77220;SDS011;66217;50.004;8.266;2023-08-20T00:30:45;9.32;;;5.70;;
77220;SDS011;66217;50.004;8.266;2023-08-20T00:33:10;12.63;;;5.95;;
77220;SDS011;66217;50.004;8.266;2023-08-20T00:35:36;12.35;;;6.20;;
77220;SDS011;66217;50.004;8.266;2023-08-20T00:38:01;18.33;;;5.53;;
77220;SDS011;66217;50.004;8.266;2023-08-20T00:40:27;12.48;;;5.53;;
77220;SDS011;66217;50.004;8.266;2023-08-20T00:42:53;21.05;;;5.90;;
77220;SDS011;66217;50.004;8.266;2023-08-20T00:45:20;11.25;;;5.70;;
77220;SDS011;66217;50.004;8.266;2023-08-20T00:47:46;12.27;;;5.65;;
77220;SDS011;66217;50.004;8.266;2023-08-20T00:50:13;11.10;;;5.97;;
77220;SDS011;66217;50.004;8.266;2023-08-20T00:52:39;13.57;;;5.88;;
77220;SDS011;66217;50.004;8.266;2023-08-20T00:55:09;10.63;;;5.70;;
77220;SDS011;66217;50.004;8.266;2023-08-20T00:57:35;14.85;;;6.25;;
77220;SDS011;66217;50.004;8.266;2023-08-20T01:00:02;11.65;;;6.38;;
77220;SDS011;66217;50.004;8.266;2023-08-20T01:02:32;9.80;;;5.32;;
77220;SDS011;66217;50.004;8.266;2023-08-20T01:04:58;15.43;;;5.88;;
77220;SDS011;66217;50.004;8.266;2023-08-20T01:07:30;13.10;;;6.53;;
77220;SDS011;66217;50.004;8.266;2023-08-20T01:12:34;13.40;;;6.15;;
77220;SDS011;66217;50.004;8.266;2023-08-20T01:15:00;14.23;;;6.78;;
77220;SDS011;66217;50.004;8.266;2023-08-20T01:17:25;10.82;;;6.20;;
77220;SDS011;66217;50.004;8.266;2023-08-20T01:19:51;9.25;;;6.32;;
77220;SDS011;66217;50.004;8.266;2023-08-20T01:28:18;12.60;;;6.00;;
77220;SDS011;66217;50.004;8.266;2023-08-20T01:30:50;13.60;;;6.45;;
77220;SDS011;66217;50.004;8.266;2023-08-20T01:33:17;9.32;;;5.93;;
77220;SDS011;66217;50.004;8.266;2023-08-20T01:35:44;10.13;;;7.00;;
77220;SDS011;66217;50.004;8.266;2023-08-20T01:38:14;13.52;;;6.85;;
77220;SDS011;66217;50.004;8.266;2023-08-20T01:40:40;9.30;;;6.22;;
77220;SDS011;66217;50.004;8.266;2023-08-20T01:43:05;9.68;;;6.22;;
77220;SDS011;66217;50.004;8.266;2023-08-20T01:45:31;9.52;;;6.60;;
77220;SDS011;66217;50.004;8.266;2023-08-20T01:47:56;13.48;;;7.15;;
77220;SDS011;66217;50.004;8.266;2023-08-20T01:50:22;12.57;;;6.75;;
77220;SDS011;66217;50.004;8.266;2023-08-20T01:52:47;15.80;;;6.40;;
77220;SDS011;66217;50.004;8.266;2023-08-20T01:55:12;10.80;;;6.70;;
77220;SDS011;66217;50.004;8.266;2023-08-20T01:57:38;14.52;;;6.90;;
77220;SDS011;66217;50.004;8.266;2023-08-20T02:00:04;13.50;;;7.45;;
77220;SDS011;66217;50.004;8.266;2023-08-20T02:02:39;8.82;;;6.88;;
77220;SDS011;66217;50.004;8.266;2023-08-20T02:05:04;14.32;;;7.75;;
77220;SDS011;66217;50.004;8.266;2023-08-20T02:07:30;12.43;;;7.25;;
77220;SDS011;66217;50.004;8.266;2023-08-20T02:09:55;14.07;;;7.68;;
77220;SDS011;66217;50.004;8.266;2023-08-20T02:12:21;18.00;;;7.13;;
77220;SDS011;66217;50.004;8.266;2023-08-20T02:14:46;11.68;;;7.30;;
77220;SDS011;66217;50.004;8.266;2023-08-20T02:17:12;13.18;;;8.48;;
77220;SDS011;66217;50.004;8.266;2023-08-20T02:19:38;12.70;;;8.15;;
77220;SDS011;66217;50.004;8.266;2023-08-20T02:22:03;15.52;;;7.07;;
77220;SDS011;66217;50.004;8.266;2023-08-20T02:24:29;15.27;;;7.30;;
77220;SDS011;66217;50.004;8.266;2023-08-20T02:26:54;12.05;;;7.40;;
77220;SDS011;66217;50.004;8.266;2023-08-20T02:29:20;10.98;;;7.00;;
77220;SDS011;66217;50.004;8.266;2023-08-20T02:31:45;10.30;;;7.07;;
77220;SDS011;66217;50.004;8.266;2023-08-20T02:34:15;12.20;;;7.40;;
77220;SDS011;66217;50.004;8.266;2023-08-20T02:36:40;11.52;;;6.97;;
77220;SDS011;66217;50.004;8.266;2023-08-20T02:39:06;11.88;;;6.63;;
77220;SDS011;66217;50.004;8.266;2023-08-20T02:41:34;13.48;;;7.93;;
77220;SDS011;66217;50.004;8.266;2023-08-20T02:44:01;12.55;;;7.22;;
77220;SDS011;66217;50.004;8.266;2023-08-20T02:46:28;10.73;;;7.07;;
77220;SDS011;66217;50.004;8.266;2023-08-20T02:48:53;16.42;;;7.35;;
77220;SDS011;66217;50.004;8.266;2023-08-20T02:51:19;19.08;;;6.95;;
77220;SDS011;66217;50.004;8.266;2023-08-20T02:53:44;9.30;;;6.60;;
77220;SDS011;66217;50.004;8.266;2023-08-20T02:56:10;14.90;;;7.38;;
77220;SDS011;66217;50.004;8.266;2023-08-20T02:58:35;13.75;;;6.50;;
77220;SDS011;66217;50.004;8.266;2023-08-20T03:01:00;12.50;;;7.38;;
77220;SDS011;66217;50.004;8.266;2023-08-20T03:03:26;13.38;;;6.53;;
77220;SDS011;66217;50.004;8.266;2023-08-20T03:05:52;11.68;;;6.65;;
77220;SDS011;66217;50.004;8.266;2023-08-20T03:08:18;12.68;;;7.10;;
77220;SDS011;66217;50.004;8.266;2023-08-20T03:10:43;11.02;;;6.70;;
77220;SDS011;66217;50.004;8.266;2023-08-20T03:13:09;13.45;;;6.97;;
77220;SDS011;66217;50.004;8.266;2023-08-20T03:15:34;10.07;;;6.95;;
77220;SDS011;66217;50.004;8.266;2023-08-20T03:18:00;10.95;;;6.65;;
77220;SDS011;66217;50.004;8.266;2023-08-20T03:20:25;13.05;;;7.55;;
77220;SDS011;66217;50.004;8.266;2023-08-20T03:22:52;14.93;;;6.95;;
77220;SDS011;66217;50.004;8.266;2023-08-20T03:25:17;14.18;;;6.53;;
77220;SDS011;66217;50.004;8.266;2023-08-20T03:27:43;11.40;;;7.30;;
77220;SDS011;66217;50.004;8.266;2023-08-20T03:30:09;11.38;;;6.65;;
77220;SDS011;66217;50.004;8.266;2023-08-20T03:32:35;11.93;;;6.97;;
77220;SDS011;66217;50.004;8.266;2023-08-20T03:35:00;11.40;;;7.47;;
77220;SDS011;66217;50.004;8.266;2023-08-20T03:37:26;15.02;;;7.18;;
77220;SDS011;66217;50.004;8.266;2023-08-20T03:39:52;15.40;;;6.57;;
77220;SDS011;66217;50.004;8.266;2023-08-20T03:42:17;13.05;;;7.15;;
77220;SDS011;66217;50.004;8.266;2023-08-20T03:44:43;11.25;;;7.10;;
77220;SDS011;66217;50.004;8.266;2023-08-20T03:47:09;12.98;;;7.43;;
77220;SDS011;66217;50.004;8.266;2023-08-20T03:49:34;13.32;;;7.20;;
77220;SDS011;66217;50.004;8.266;2023-08-20T03:52:00;12.13;;;7.32;;
77220;SDS011;66217;50.004;8.266;2023-08-20T03:54:28;12.45;;;7.20;;
77220;SDS011;66217;50.004;8.266;2023-08-20T03:56:55;14.48;;;8.18;;
77220;SDS011;66217;50.004;8.266;2023-08-20T03:59:22;11.10;;;7.60;;
77220;SDS011;66217;50.004;8.266;2023-08-20T04:01:47;17.05;;;8.10;;
77220;SDS011;66217;50.004;8.266;2023-08-20T04:04:14;10.68;;;7.03;;
77220;SDS011;66217;50.004;8.266;2023-08-20T04:06:39;12.57;;;6.97;;
77220;SDS011;66217;50.004;8.266;2023-08-20T04:09:05;11.90;;;7.03;;
77220;SDS011;66217;50.004;8.266;2023-08-20T04:11:31;12.52;;;7.88;;
77220;SDS011;66217;50.004;8.266;2023-08-20T04:13:57;9.95;;;7.05;;
77220;SDS011;66217;50.004;8.266;2023-08-20T04:16:22;15.45;;;7.68;;
77220;SDS011;66217;50.004;8.266;2023-08-20T04:18:47;14.93;;;7.57;;
77220;SDS011;66217;50.004;8.266;2023-08-20T04:21:13;18.42;;;7.85;;
77220;SDS011;66217;50.004;8.266;2023-08-20T04:23:39;14.65;;;7.70;;
77220;SDS011;66217;50.004;8.266;2023-08-20T04:26:04;10.18;;;7.07;;
77220;SDS011;66217;50.004;8.266;2023-08-20T04:28:31;15.40;;;7.80;;
77220;SDS011;66217;50.004;8.266;2023-08-20T04:30:56;14.63;;;7.38;;
77220;SDS011;66217;50.004;8.266;2023-08-20T04:33:27;15.07;;;7.63;;
77220;SDS011;66217;50.004;8.266;2023-08-20T04:35:54;10.48;;;7.47;;
77220;SDS011;66217;50.004;8.266;2023-08-20T04:38:19;13.07;;;7.35;;
77220;SDS011;66217;50.004;8.266;2023-08-20T04:40:48;16.98;;;7.65;;
77220;SDS011;66217;50.004;8.266;2023-08-20T04:43:14;9.32;;;7.50;;
77220;SDS011;66217;50.004;8.266;2023-08-20T04:45:40;14.25;;;8.15;;
77220;SDS011;66217;50.004;8.266;2023-08-20T04:48:06;11.38;;;7.22;;
77220;SDS011;66217;50.004;8.266;2023-08-20T04:50:31;13.68;;;7.28;;
77220;SDS011;66217;50.004;8.266;2023-08-20T04:52:57;11.05;;;7.30;;
77220;SDS011;66217;50.004;8.266;2023-08-20T04:55:25;14.60;;;7.65;;
77220;SDS011;66217;50.004;8.266;2023-08-20T04:57:53;13.43;;;7.53;;
77220;SDS011;66217;50.004;8.266;2023-08-20T05:00:20;14.35;;;7.75;;
77220;SDS011;66217;50.004;8.266;2023-08-20T05:02:53;10.68;;;7.30;;
77220;SDS011;66217;50.004;8.266;2023-08-20T05:05:20;12.75;;;7.05;;
77220;SDS011;66217;50.004;8.266;2023-08-20T05:07:45;11.90;;;7.00;;
77220;SDS011;66217;50.004;8.266;2023-08-20T05:10:12;12.98;;;7.32;;
77220;SDS011;66217;50.004;8.266;2023-08-20T05:12:37;10.52;;;6.97;;
77220;SDS011;66217;50.004;8.266;2023-08-20T05:15:03;11.65;;;7.13;;
77220;SDS011;66217;50.004;8.266;2023-08-20T05:20:40;10.73;;;6.88;;
77220;SDS011;66217;50.004;8.266;2023-08-20T05:23:31;11.00;;;6.82;;
77220;SDS011;66217;50.004;8.266;2023-08-20T05:25:57;15.25;;;7.43;;
77220;SDS011;66217;50.004;8.266;2023-08-20T05:28:33;12.65;;;6.47;;
77220;SDS011;66217;50.004;8.266;2023-08-20T05:31:02;15.35;;;7.15;;
77220;SDS011;66217;50.004;8.266;2023-08-20T05:33:59;9.93;;;6.18;;
77220;SDS011;66217;50.004;8.266;2023-08-20T05:36:28;8.50;;;6.63;;
77220;SDS011;66217;50.004;8.266;2023-08-20T05:38:57;7.88;;;6.40;;
77220;SDS011;66217;50.004;8.266;2023-08-20T05:41:24;12.38;;;6.43;;
77220;SDS011;66217;50.004;8.266;2023-08-20T05:43:50;10.63;;;6.18;;
77220;SDS011;66217;50.004;8.266;2023-08-20T05:46:16;11.90;;;6.40;;
77220;SDS011;66217;50.004;8.266;2023-08-20T05:48:51;9.10;;;6.45;;
77220;SDS011;66217;50.004;8.266;2023-08-20T05:51:27;7.18;;;6.28;;
77220;SDS011;66217;50.004;8.266;2023-08-20T05:53:53;12.20;;;5.80;;
77220;SDS011;66217;50.004;8.266;2023-08-20T05:56:18;14.02;;;6.43;;
77220;SDS011;66217;50.004;8.266;2023-08-20T05:58:44;12.50;;;6.15;;
77220;SDS011;66217;50.004;8.266;2023-08-20T06:01:10;10.68;;;6.60;;
77220;SDS011;66217;50.004;8.266;2023-08-20T06:03:35;10.13;;;6.10;;
77220;SDS011;66217;50.004;8.266;2023-08-20T06:06:00;9.70;;;5.82;;
77220;SDS011;66217;50.004;8.266;2023-08-20T06:08:26;9.38;;;5.82;;
77220;SDS011;66217;50.004;8.266;2023-08-20T06:10:51;7.95;;;5.68;;
77220;SDS011;66217;50.004;8.266;2023-08-20T06:13:17;12.75;;;6.15;;
77220;SDS011;66217;50.004;8.266;2023-08-20T06:15:42;11.93;;;6.13;;
77220;SDS011;66217;50.004;8.266;2023-08-20T06:18:08;13.75;;;5.60;;
77220;SDS011;66217;50.004;8.266;2023-08-20T06:20:36;11.23;;;5.60;;
77220;SDS011;66217;50.004;8.266;2023-08-20T06:23:01;10.80;;;5.78;;
77220;SDS011;66217;50.004;8.266;2023-08-20T06:25:27;9.05;;;5.80;;
77220;SDS011;66217;50.004;8.266;2023-08-20T06:27:52;16.23;;;5.80;;
77220;SDS011;66217;50.004;8.266;2023-08-20T06:30:18;9.40;;;6.15;;
77220;SDS011;66217;50.004;8.266;2023-08-20T06:32:43;10.32;;;6.05;;
77220;SDS011;66217;50.004;8.266;2023-08-20T06:35:09;11.07;;;5.97;;
77220;SDS011;66217;50.004;8.266;2023-08-20T06:37:35;10.43;;;5.75;;
77220;SDS011;66217;50.004;8.266;2023-08-20T06:40:00;13.38;;;5.80;;
77220;SDS011;66217;50.004;8.266;2023-08-20T06:42:26;10.13;;;5.60;;
77220;SDS011;66217;50.004;8.266;2023-08-20T06:44:51;12.07;;;5.65;;
77220;SDS011;66217;50.004;8.266;2023-08-20T06:47:17;10.90;;;5.60;;
77220;SDS011;66217;50.004;8.266;2023-08-20T06:49:42;8.55;;;5.60;;
77220;SDS011;66217;50.004;8.266;2023-08-20T06:52:08;8.20;;;5.95;;
77220;SDS011;66217;50.004;8.266;2023-08-20T06:54:33;17.48;;;5.80;;
77220;SDS011;66217;50.004;8.266;2023-08-20T06:56:59;10.35;;;5.68;;
77220;SDS011;66217;50.004;8.266;2023-08-20T06:59:24;11.52;;;5.97;;
77220;SDS011;66217;50.004;8.266;2023-08-20T07:01:49;9.98;;;5.53;;
77220;SDS011;66217;50.004;8.266;2023-08-20T07:04:15;10.18;;;6.28;;
77220;SDS011;66217;50.004;8.266;2023-08-20T07:06:40;10.45;;;6.00;;
77220;SDS011;66217;50.004;8.266;2023-08-20T07:09:06;10.40;;;5.88;;
77220;SDS011;66217;50.004;8.266;2023-08-20T07:11:32;13.55;;;5.90;;
77220;SDS011;66217;50.004;8.266;2023-08-20T07:13:57;10.27;;;5.57;;
77220;SDS011;66217;50.004;8.266;2023-08-20T07:16:23;12.27;;;6.47;;
77220;SDS011;66217;50.004;8.266;2023-08-20T07:18:48;18.23;;;6.82;;
77220;SDS011;66217;50.004;8.266;2023-08-20T07:21:14;12.65;;;5.60;;
77220;SDS011;66217;50.004;8.266;2023-08-20T07:23:39;9.07;;;5.88;;
77220;SDS011;66217;50.004;8.266;2023-08-20T07:26:05;12.40;;;5.63;;
77220;SDS011;66217;50.004;8.266;2023-08-20T07:28:32;11.27;;;5.35;;
77220;SDS011;66217;50.004;8.266;2023-08-20T07:31:17;8.07;;;4.85;;
77220;SDS011;66217;50.004;8.266;2023-08-20T07:33:48;9.52;;;4.93;;
77220;SDS011;66217;50.004;8.266;2023-08-20T07:36:14;8.70;;;5.10;;
77220;SDS011;66217;50.004;8.266;2023-08-20T07:38:40;10.38;;;4.82;;
77220;SDS011;66217;50.004;8.266;2023-08-20T07:41:07;9.23;;;4.68;;
77220;SDS011;66217;50.004;8.266;2023-08-20T07:43:33;8.38;;;4.85;;
77220;SDS011;66217;50.004;8.266;2023-08-20T07:45:59;8.95;;;5.00;;
77220;SDS011;66217;50.004;8.266;2023-08-20T07:48:24;8.02;;;4.88;;
77220;SDS011;66217;50.004;8.266;2023-08-20T07:50:50;8.65;;;4.40;;
77220;SDS011;66217;50.004;8.266;2023-08-20T07:53:15;8.13;;;4.93;;
77220;SDS011;66217;50.004;8.266;2023-08-20T07:55:40;7.55;;;4.57;;
77220;SDS011;66217;50.004;8.266;2023-08-20T07:58:06;7.38;;;4.43;;
77220;SDS011;66217;50.004;8.266;2023-08-20T08:00:31;8.25;;;4.50;;
77220;SDS011;66217;50.004;8.266;2023-08-20T08:02:56;12.20;;;4.13;;
77220;SDS011;66217;50.004;8.266;2023-08-20T08:05:22;7.88;;;4.38;;
77220;SDS011;66217;50.004;8.266;2023-08-20T08:07:47;7.13;;;4.28;;
77220;SDS011;66217;50.004;8.266;2023-08-20T08:10:13;8.95;;;4.25;;
77220;SDS011;66217;50.004;8.266;2023-08-20T08:12:38;9.55;;;4.40;;
77220;SDS011;66217;50.004;8.266;2023-08-20T08:15:04;9.60;;;4.10;;
77220;SDS011;66217;50.004;8.266;2023-08-20T08:17:30;7.47;;;4.68;;
77220;SDS011;66217;50.004;8.266;2023-08-20T08:19:55;9.80;;;4.63;;
77220;SDS011;66217;50.004;8.266;2023-08-20T08:22:21;7.90;;;4.72;;
77220;SDS011;66217;50.004;8.266;2023-08-20T08:24:47;7.32;;;4.30;;
77220;SDS011;66217;50.004;8.266;2023-08-20T08:27:12;5.70;;;4.35;;
77220;SDS011;66217;50.004;8.266;2023-08-20T08:29:38;5.50;;;4.38;;
77220;SDS011;66217;50.004;8.266;2023-08-20T08:32:03;15.63;;;5.00;;
77220;SDS011;66217;50.004;8.266;2023-08-20T08:34:29;7.15;;;4.60;;
77220;SDS011;66217;50.004;8.266;2023-08-20T08:36:54;6.88;;;4.82;;
77220;SDS011;66217;50.004;8.266;2023-08-20T08:39:19;6.50;;;4.68;;
77220;SDS011;66217;50.004;8.266;2023-08-20T08:41:45;8.65;;;5.22;;
77220;SDS011;66217;50.004;8.266;2023-08-20T08:44:15;9.75;;;5.32;;
77220;SDS011;66217;50.004;8.266;2023-08-20T08:46:41;7.40;;;5.13;;
77220;SDS011;66217;50.004;8.266;2023-08-20T08:49:06;9.18;;;5.03;;
77220;SDS011;66217;50.004;8.266;2023-08-20T08:51:33;7.10;;;4.80;;
77220;SDS011;66217;50.004;8.266;2023-08-20T08:53:59;7.80;;;4.93;;
77220;SDS011;66217;50.004;8.266;2023-08-20T08:56:25;5.95;;;4.63;;
77220;SDS011;66217;50.004;8.266;2023-08-20T08:58:50;7.75;;;5.00;;
77220;SDS011;66217;50.004;8.266;2023-08-20T09:01:16;7.88;;;4.45;;
77220;SDS011;66217;50.004;8.266;2023-08-20T09:03:41;6.90;;;4.53;;
77220;SDS011;66217;50.004;8.266;2023-08-20T09:06:10;13.80;;;5.20;;
77220;SDS011;66217;50.004;8.266;2023-08-20T09:08:35;9.80;;;4.65;;
77220;SDS011;66217;50.004;8.266;2023-08-20T09:11:01;5.65;;;4.65;;
77220;SDS011;66217;50.004;8.266;2023-08-20T09:13:37;8.13;;;4.55;;
77220;SDS011;66217;50.004;8.266;2023-08-20T09:16:07;7.95;;;4.75;;
77220;SDS011;66217;50.004;8.266;2023-08-20T09:18:37;4.93;;;3.97;;
77220;SDS011;66217;50.004;8.266;2023-08-20T09:21:10;8.98;;;4.85;;
77220;SDS011;66217;50.004;8.266;2023-08-20T09:23:36;6.85;;;4.40;;
77220;SDS011;66217;50.004;8.266;2023-08-20T09:26:02;8.95;;;4.32;;
77220;SDS011;66217;50.004;8.266;2023-08-20T09:28:29;5.97;;;4.20;;
77220;SDS011;66217;50.004;8.266;2023-08-20T09:30:59;8.73;;;4.43;;
77220;SDS011;66217;50.004;8.266;2023-08-20T09:33:27;6.53;;;4.20;;
77220;SDS011;66217;50.004;8.266;2023-08-20T09:35:53;6.80;;;4.13;;
77220;SDS011;66217;50.004;8.266;2023-08-20T09:38:20;5.70;;;4.28;;
77220;SDS011;66217;50.004;8.266;2023-08-20T09:40:49;7.90;;;4.68;;
77220;SDS011;66217;50.004;8.266;2023-08-20T09:43:21;5.30;;;4.25;;
77220;SDS011;66217;50.004;8.266;2023-08-20T09:45:51;5.07;;;3.83;;
77220;SDS011;66217;50.004;8.266;2023-08-20T09:48:18;8.85;;;4.13;;
77220;SDS011;66217;50.004;8.266;2023-08-20T09:50:47;7.00;;;4.10;;
77220;SDS011;66217;50.004;8.266;2023-08-20T09:53:17;7.93;;;4.50;;
77220;SDS011;66217;50.004;8.266;2023-08-20T09:55:48;8.80;;;4.20;;
77220;SDS011;66217;50.004;8.266;2023-08-20T09:58:16;6.32;;;3.95;;
77220;SDS011;66217;50.004;8.266;2023-08-20T10:00:41;5.93;;;4.22;;
77220;SDS011;66217;50.004;8.266;2023-08-20T10:03:07;7.38;;;4.15;;
77220;SDS011;66217;50.004;8.266;2023-08-20T10:05:32;5.30;;;4.53;;
77220;SDS011;66217;50.004;8.266;2023-08-20T10:07:58;5.22;;;4.20;;
77220;SDS011;66217;50.004;8.266;2023-08-20T10:10:24;5.57;;;4.20;;
77220;SDS011;66217;50.004;8.266;2023-08-20T10:12:50;5.70;;;3.65;;
77220;SDS011;66217;50.004;8.266;2023-08-20T10:15:16;6.07;;;4.47;;
77220;SDS011;66217;50.004;8.266;2023-08-20T10:17:42;8.10;;;4.35;;
77220;SDS011;66217;50.004;8.266;2023-08-20T10:20:09;5.50;;;4.55;;
77220;SDS011;66217;50.004;8.266;2023-08-20T10:22:44;6.38;;;4.30;;
77220;SDS011;66217;50.004;8.266;2023-08-20T10:25:10;5.07;;;4.32;;
77220;SDS011;66217;50.004;8.266;2023-08-20T10:27:40;6.72;;;4.40;;
77220;SDS011;66217;50.004;8.266;2023-08-20T10:30:17;7.40;;;4.82;;
77220;SDS011;66217;50.004;8.266;2023-08-20T10:35:11;6.28;;;4.22;;
77220;SDS011;66217;50.004;8.266;2023-08-20T10:37:37;6.15;;;4.20;;
77220;SDS011;66217;50.004;8.266;2023-08-20T10:40:05;8.30;;;4.50;;
77220;SDS011;66217;50.004;8.266;2023-08-20T10:42:31;7.35;;;4.68;;
77220;SDS011;66217;50.004;8.266;2023-08-20T10:50:09;6.65;;;4.90;;
77220;SDS011;66217;50.004;8.266;2023-08-20T10:52:40;9.95;;;4.22;;
77220;SDS011;66217;50.004;8.266;2023-08-20T10:55:15;5.80;;;3.88;;
77220;SDS011;66217;50.004;8.266;2023-08-20T10:57:40;5.03;;;3.65;;
77220;SDS011;66217;50.004;8.266;2023-08-20T11:00:08;5.75;;;4.03;;
77220;SDS011;66217;50.004;8.266;2023-08-20T11:02:40;4.47;;;3.70;;
77220;SDS011;66217;50.004;8.266;2023-08-20T11:05:27;6.35;;;3.67;;
77220;SDS011;66217;50.004;8.266;2023-08-20T11:07:52;6.43;;;4.00;;
77220;SDS011;66217;50.004;8.266;2023-08-20T11:10:17;6.45;;;3.72;;
77220;SDS011;66217;50.004;8.266;2023-08-20T11:12:45;7.40;;;3.65;;
77220;SDS011;66217;50.004;8.266;2023-08-20T11:15:11;6.20;;;3.38;;
77220;SDS011;66217;50.004;8.266;2023-08-20T11:17:45;7.78;;;3.83;;
77220;SDS011;66217;50.004;8.266;2023-08-20T11:20:12;4.50;;;3.60;;
77220;SDS011;66217;50.004;8.266;2023-08-20T11:22:39;5.78;;;4.50;;
77220;SDS011;66217;50.004;8.266;2023-08-20T11:25:05;6.45;;;4.03;;
77220;SDS011;66217;50.004;8.266;2023-08-20T11:27:31;7.25;;;3.80;;
77220;SDS011;66217;50.004;8.266;2023-08-20T11:30:00;6.03;;;3.45;;
77220;SDS011;66217;50.004;8.266;2023-08-20T11:32:25;8.68;;;3.63;;
77220;SDS011;66217;50.004;8.266;2023-08-20T11:34:51;8.02;;;3.72;;
77220;SDS011;66217;50.004;8.266;2023-08-20T11:37:18;5.78;;;3.60;;
77220;SDS011;66217;50.004;8.266;2023-08-20T11:39:45;6.78;;;3.67;;
77220;SDS011;66217;50.004;8.266;2023-08-20T11:42:13;5.90;;;3.40;;
77220;SDS011;66217;50.004;8.266;2023-08-20T11:44:45;5.20;;;3.08;;
77220;SDS011;66217;50.004;8.266;2023-08-20T11:47:17;4.57;;;3.20;;
77220;SDS011;66217;50.004;8.266;2023-08-20T11:49:44;4.50;;;3.60;;
77220;SDS011;66217;50.004;8.266;2023-08-20T11:52:09;5.85;;;3.63;;
77220;SDS011;66217;50.004;8.266;2023-08-20T11:54:35;8.85;;;3.30;;
77220;SDS011;66217;50.004;8.266;2023-08-20T11:57:04;6.35;;;3.50;;
77220;SDS011;66217;50.004;8.266;2023-08-20T11:59:31;5.57;;;3.22;;
77220;SDS011;66217;50.004;8.266;2023-08-20T12:01:57;4.43;;;3.15;;
77220;SDS011;66217;50.004;8.266;2023-08-20T12:04:25;4.47;;;3.35;;
77220;SDS011;66217;50.004;8.266;2023-08-20T12:09:49;9.35;;;3.85;;
77220;SDS011;66217;50.004;8.266;2023-08-20T12:12:15;5.85;;;3.42;;
77220;SDS011;66217;50.004;8.266;2023-08-20T12:17:09;7.05;;;3.97;;
77220;SDS011;66217;50.004;8.266;2023-08-20T12:19:35;4.88;;;3.35;;
77220;SDS011;66217;50.004;8.266;2023-08-20T12:22:00;6.35;;;3.92;;
77220;SDS011;66217;50.004;8.266;2023-08-20T12:24:26;6.63;;;3.75;;
77220;SDS011;66217;50.004;8.266;2023-08-20T12:26:51;6.50;;;3.40;;
77220;SDS011;66217;50.004;8.266;2023-08-20T12:29:18;4.90;;;3.58;;
77220;SDS011;66217;50.004;8.266;2023-08-20T12:31:43;8.18;;;3.65;;
77220;SDS011;66217;50.004;8.266;2023-08-20T12:34:09;4.88;;;3.30;;
77220;SDS011;66217;50.004;8.266;2023-08-20T12:36:34;7.97;;;3.78;;
77220;SDS011;66217;50.004;8.266;2023-08-20T12:39:00;7.75;;;3.78;;
77220;SDS011;66217;50.004;8.266;2023-08-20T12:41:25;6.53;;;3.88;;
77220;SDS011;66217;50.004;8.266;2023-08-20T12:43:51;7.55;;;4.00;;
77220;SDS011;66217;50.004;8.266;2023-08-20T12:46:19;7.35;;;4.00;;
77220;SDS011;66217;50.004;8.266;2023-08-20T12:48:45;6.47;;;3.85;;
77220;SDS011;66217;50.004;8.266;2023-08-20T12:53:42;9.55;;;4.35;;
77220;SDS011;66217;50.004;8.266;2023-08-20T12:56:09;5.43;;;3.50;;
77220;SDS011;66217;50.004;8.266;2023-08-20T12:58:34;5.60;;;3.78;;
77220;SDS011;66217;50.004;8.266;2023-08-20T13:01:00;7.38;;;3.80;;
77220;SDS011;66217;50.004;8.266;2023-08-20T13:03:26;7.60;;;3.85;;
77220;SDS011;66217;50.004;8.266;2023-08-20T13:05:53;8.77;;;4.53;;
77220;SDS011;66217;50.004;8.266;2023-08-20T13:08:18;6.80;;;3.53;;
77220;SDS011;66217;50.004;8.266;2023-08-20T13:10:46;7.45;;;3.88;;
77220;SDS011;66217;50.004;8.266;2023-08-20T13:13:15;9.15;;;3.83;;
77220;SDS011;66217;50.004;8.266;2023-08-20T13:15:44;5.88;;;3.63;;
77220;SDS011;66217;50.004;8.266;2023-08-20T13:18:10;4.80;;;3.88;;
77220;SDS011;66217;50.004;8.266;2023-08-20T13:20:39;4.57;;;3.53;;
77220;SDS011;66217;50.004;8.266;2023-08-20T13:23:05;7.47;;;3.90;;
77220;SDS011;66217;50.004;8.266;2023-08-20T13:25:30;7.82;;;3.38;;
77220;SDS011;66217;50.004;8.266;2023-08-20T13:27:56;6.03;;;3.67;;
77220;SDS011;66217;50.004;8.266;2023-08-20T13:30:21;6.60;;;4.00;;
77220;SDS011;66217;50.004;8.266;2023-08-20T13:32:47;9.27;;;3.95;;
77220;SDS011;66217;50.004;8.266;2023-08-20T13:35:12;5.88;;;3.75;;
77220;SDS011;66217;50.004;8.266;2023-08-20T13:37:39;6.80;;;3.53;;
77220;SDS011;66217;50.004;8.266;2023-08-20T13:40:05;5.68;;;3.90;;
77220;SDS011;66217;50.004;8.266;2023-08-20T13:42:32;8.32;;;3.90;;
77220;SDS011;66217;50.004;8.266;2023-08-20T13:44:57;5.47;;;3.65;;
77220;SDS011;66217;50.004;8.266;2023-08-20T13:47:23;7.40;;;3.50;;
77220;SDS011;66217;50.004;8.266;2023-08-20T13:49:48;6.95;;;3.55;;
77220;SDS011;66217;50.004;8.266;2023-08-20T13:52:13;5.88;;;3.72;;
77220;SDS011;66217;50.004;8.266;2023-08-20T13:54:39;6.95;;;4.07;;
77220;SDS011;66217;50.004;8.266;2023-08-20T13:57:04;9.57;;;4.18;;
77220;SDS011;66217;50.004;8.266;2023-08-20T13:59:30;8.68;;;3.85;;
77220;SDS011;66217;50.004;8.266;2023-08-20T14:01:56;7.20;;;3.88;;
77220;SDS011;66217;50.004;8.266;2023-08-20T14:04:21;9.15;;;4.10;;
77220;SDS011;66217;50.004;8.266;2023-08-20T14:06:47;5.65;;;4.00;;
77220;SDS011;66217;50.004;8.266;2023-08-20T14:09:13;6.10;;;3.97;;
77220;SDS011;66217;50.004;8.266;2023-08-20T14:11:38;5.95;;;3.80;;
77220;SDS011;66217;50.004;8.266;2023-08-20T14:14:04;6.88;;;3.75;;
77220;SDS011;66217;50.004;8.266;2023-08-20T14:16:29;7.43;;;3.97;;
77220;SDS011;66217;50.004;8.266;2023-08-20T14:18:55;6.20;;;4.03;;
77220;SDS011;66217;50.004;8.266;2023-08-20T14:21:20;11.80;;;4.38;;
77220;SDS011;66217;50.004;8.266;2023-08-20T14:23:46;7.20;;;4.28;;
77220;SDS011;66217;50.004;8.266;2023-08-20T14:26:11;9.00;;;3.60;;
77220;SDS011;66217;50.004;8.266;2023-08-20T14:28:37;6.60;;;3.47;;
77220;SDS011;66217;50.004;8.266;2023-08-20T14:31:05;5.85;;;4.05;;
77220;SDS011;66217;50.004;8.266;2023-08-20T14:33:30;5.72;;;3.53;;
77220;SDS011;66217;50.004;8.266;2023-08-20T14:35:56;8.63;;;3.75;;
77220;SDS011;66217;50.004;8.266;2023-08-20T14:38:21;9.40;;;3.90;;
77220;SDS011;66217;50.004;8.266;2023-08-20T14:40:47;6.28;;;3.65;;
77220;SDS011;66217;50.004;8.266;2023-08-20T14:43:12;5.78;;;3.38;;
77220;SDS011;66217;50.004;8.266;2023-08-20T14:45:38;5.15;;;3.15;;
77220;SDS011;66217;50.004;8.266;2023-08-20T14:48:03;6.88;;;3.65;;
77220;SDS011;66217;50.004;8.266;2023-08-20T14:50:29;9.18;;;3.58;;
77220;SDS011;66217;50.004;8.266;2023-08-20T14:52:55;5.78;;;3.88;;
77220;SDS011;66217;50.004;8.266;2023-08-20T14:55:20;11.30;;;4.13;;
77220;SDS011;66217;50.004;8.266;2023-08-20T14:57:46;7.30;;;3.92;;
77220;SDS011;66217;50.004;8.266;2023-08-20T15:00:12;6.30;;;3.72;;
77220;SDS011;66217;50.004;8.266;2023-08-20T15:02:42;7.07;;;4.00;;
77220;SDS011;66217;50.004;8.266;2023-08-20T15:05:08;6.15;;;3.97;;
77220;SDS011;66217;50.004;8.266;2023-08-20T15:07:35;7.55;;;3.83;;